Station: Scotts Peak  

  Atmospheric Gas Attenuation - ITU Rec 676-11   ----------------- dB/100km -----------------
Date Time Temp RH % AH g/m3 Dew Point Wind Direction Speed kph Gust kph Barometer mB Rainfall Since 9am 24GHz 47GHz 76GHz 122GHz 134GHz 241GHz
08/05 12:30 8.4 95 8.06 7.6 32 46 1013.1 3.2 18.7 26.6 40.3 105.7 97.9 336.1
08/05 12:20 8.1 95 7.91 7.3 35 41 1013.1 3.2 18.4 26.4 39.8 104.5 96.2 330.1
08/05 12:10 8.1 94 7.82 7.2 17 20 1013.1 2.6 18.2 26.3 39.4 103.4 95.0 325.7
08/05 12:00 8.1 95 7.91 7.3 30 41 1013.1 2.4 18.4 26.4 39.8 104.5 96.2 330.1
08/05 11:50 8.1 97 8.07 7.7 32 39 1013.1 2.4 18.7 26.7 40.5 106.3 98.5 337.9
08/05 11:40 8.1 97 8.07 7.7 20 30 1013.1 2.4 18.7 26.7 40.5 106.3 98.5 337.9
08/05 11:30 8 95 7.86 7.2 19 30 1013.1 2 18.3 26.4 39.7 104.0 95.7 328.1
08/05 11:20 8 94 7.77 7.1 11 13 1013.1 1.6 18.1 26.2 39.3 103.0 94.4 323.7
08/05 11:10 7.9 95 7.81 7.1 11 15 1013.1 1.6 18.2 26.3 39.5 103.6 95.1 326.1
08/05 11:00 8 96 7.94 7.4 19 39 1013.1 1.6 18.4 26.5 40.0 104.9 96.8 332.0
08/05 10:50 7.7 95 7.71 7 24 30 1013.1 1.4 18.0 26.2 39.2 102.7 93.9 322.0
08/05 10:40 7.6 95 7.66 6.9 32 43 1013.1 1.4 17.9 26.2 39.0 102.3 93.4 320.0
08/05 10:30 7.6 95 7.66 6.9 17 32 1013.1 1 17.9 26.2 39.0 102.3 93.4 320.0
08/05 10:20 7.6 94 7.58 6.7 11 11 1013.1 0.8 17.7 26.0 38.7 101.4 92.3 316.1
08/05 10:10 7.6 95 7.66 6.9 11 15 1013.1 0.8 17.9 26.2 39.0 102.3 93.4 320.0
08/05 10:00 7.3 93 7.35 6.2 20 35 1013.1 0.6 17.2 25.7 37.9 99.2 89.4 306.2
08/05 09:50 7.4 94 7.48 6.5 13 15 1013.1 0.6 17.5 25.9 38.4 100.5 91.1 312.1
08/05 09:40 7.2 95 7.46 6.5 24 30 1013.1 0.6 17.4 25.9 38.4 100.6 91.1 311.9
08/05 09:30 7.1 95 7.41 6.4 17 33 1013.1 0.2 17.3 25.9 38.2 100.1 90.5 309.9
08/05 09:20 7.1 93 7.26 6 15 20 1013.1 0 17.0 25.6 37.6 98.5 88.4 302.7
08/05 09:10 7.2 96 7.54 6.6 6 6 1013.1 0 17.6 26.1 38.7 101.5 92.2 315.8
08/05 09:00 6.9 94 7.24 6 20 43 1013.1 0 17.0 25.6 37.6 98.5 88.4 302.5
08/05 08:50 6.7 95 7.22 6 7 9 1013.1 21 16.9 25.7 37.6 98.5 88.3 302.3
08/05 08:40 6.7 96 7.3 6.1 11 13 1013.1 21 17.1 25.8 37.9 99.4 89.4 306.2
08/05 08:30 6.6 96 7.25 6 15 39 1013.1 21 17.0 25.8 37.8 99.0 88.9 304.1
08/05 08:20 6.6 95 7.18 5.9 28 32 1013.1 20.6 16.9 25.6 37.5 98.2 87.9 300.7
08/05 08:10 6.5 96 7.2 5.9 17 28 1013.1 20.2 16.9 25.7 37.6 98.6 88.3 302.1
08/05 08:00 6.5 96 7.2 5.9 11 22 1013.1 20.2 16.9 25.7 37.6 98.6 88.3 302.1
08/05 07:50 6.5 96 7.2 5.9 13 20 1013.1 20.2 16.9 25.7 37.6 98.6 88.3 302.1
08/05 07:40 6.4 96 7.16 5.8 0 4 1013.1 19.8 16.8 25.7 37.5 98.2 87.8 300.5
08/05 07:30 6.4 96 7.16 5.8 19 44 1013.1 19.8 16.8 25.7 37.5 98.2 87.8 300.5
08/05 07:20 6.4 96 7.16 5.8 32 43 1013.1 19.6 16.8 25.7 37.5 98.2 87.8 300.5
08/05 07:10 6.5 96 7.2 5.9 22 30 1013.1 19.6 16.9 25.7 37.6 98.6 88.3 302.1
08/05 07:00 6.4 96 7.16 5.8 22 35 1013.1 18.6 16.8 25.7 37.5 98.2 87.8 300.5
08/05 06:50 6.4 96 7.16 5.8 24 32 1013.1 18.6 16.8 25.7 37.5 98.2 87.8 300.5
08/05 06:40 6.5 95 7.13 5.8 24 30 1013.1 18.6 16.8 25.6 37.3 97.8 87.3 298.7
08/05 06:30 6.6 95 7.18 5.9 33 69 1013.1 18.6 16.9 25.6 37.5 98.2 87.9 300.7
08/05 06:20 6.6 95 7.18 5.9 43 50 1013.1 18 16.9 25.6 37.5 98.2 87.9 300.7
08/05 06:10 6.5 95 7.13 5.8 24 35 1013.1 17.8 16.8 25.6 37.3 97.8 87.3 298.7
08/05 06:00 6.5 96 7.2 5.9 32 48 1013.1 17.8 16.9 25.7 37.6 98.6 88.3 302.1
08/05 05:50 6.5 96 7.2 5.9 44 56 1013.1 17.8 16.9 25.7 37.6 98.6 88.3 302.1
08/05 05:40 6.5 96 7.2 5.9 19 35 1013.1 17.8 16.9 25.7 37.6 98.6 88.3 302.1
08/05 05:30 6.5 95 7.13 5.8 30 61 1013.1 17.8 16.8 25.6 37.3 97.8 87.3 298.7
08/05 05:20 6.5 95 7.13 5.8 24 32 1013.1 17.6 16.8 25.6 37.3 97.8 87.3 298.7
08/05 05:10 6.6 93 7.02 5.6 22 32 1013.1 16.8 16.5 25.4 36.8 96.4 85.7 293.0
08/05 05:00 6.4 94 7.01 5.5 37 65 1013.1 16.8 16.5 25.4 36.9 96.6 85.8 293.3
08/05 04:50 6.6 95 7.18 5.9 24 30 1013.1 16.8 16.9 25.6 37.5 98.2 87.9 300.7
08/05 04:40 6.5 95 7.13 5.8 24 32 1013.1 16.8 16.8 25.6 37.3 97.8 87.3 298.7
08/05 04:30 6.4 94 7.01 5.5 26 69 1013.1 16.6 16.5 25.4 36.9 96.6 85.8 293.3
08/05 04:20 6.7 94 7.15 5.8 28 37 1013.1 16.6 16.8 25.6 37.3 97.7 87.4 298.9
08/05 04:10 6.7 95 7.22 6 28 37 1013.1 16.2 16.9 25.7 37.6 98.5 88.3 302.3
08/05 04:00 6.7 94 7.15 5.8 35 74 1013.1 16.2 16.8 25.6 37.3 97.7 87.4 298.9
08/05 03:50 6.7 93 7.07 5.7 41 59 1013.1 15.8 16.6 25.4 37.0 96.8 86.3 295.0
08/05 03:40 6.6 94 7.1 5.7 30 39 1013.1 15.8 16.7 25.5 37.1 97.3 86.8 296.9
08/05 03:30 6.8 95 7.27 6.1 41 63 1013.1 15.8 17.1 25.7 37.8 99.0 88.9 304.3
08/05 03:20 6.8 95 7.27 6.1 43 54 1013.1 15.6 17.1 25.7 37.8 99.0 88.9 304.3
08/05 03:10 6.7 94 7.15 5.8 39 48 1013.1 15.6 16.8 25.6 37.3 97.7 87.4 298.9
08/05 03:00 7 94 7.29 6.1 35 67 1013.1 15.4 17.1 25.7 37.8 98.9 89.0 304.5
08/05 02:50 6.9 93 7.16 5.8 35 41 1013.1 14.6 16.8 25.5 37.3 97.6 87.3 298.6
08/05 02:40 6.8 92 7.04 5.6 37 52 1013.1 14.6 16.6 25.3 36.8 96.4 85.7 293.2
08/05 02:30 6.6 94 7.1 5.7 37 61 1013.1 14.6 16.7 25.5 37.1 97.3 86.8 296.9
08/05 02:20 6.7 95 7.22 6 33 46 1013.1 14.6 16.9 25.7 37.6 98.5 88.3 302.3
08/05 02:10 6.9 96 7.39 6.3 35 46 1013.1 14.4 17.3 25.9 38.2 100.2 90.5 309.7
08/05 02:00 7 94 7.29 6.1 33 50 1013.1 14 17.1 25.7 37.8 98.9 89.0 304.5
08/05 01:50 7.1 93 7.26 6 35 50 1013.1 13.2 17.0 25.6 37.6 98.5 88.4 302.7
08/05 01:40 7.2 94 7.38 6.3 50 59 1013.1 13 17.3 25.8 38.0 99.7 90.0 308.1
08/05 01:30 7.2 94 7.38 6.3 44 67 1013.1 13 17.3 25.8 38.0 99.7 90.0 308.1
08/05 01:20 7.3 94 7.43 6.4 46 59 1013.1 13 17.4 25.9 38.2 100.1 90.5 310.1
08/05 01:10 7.4 95 7.56 6.7 28 35 1013.1 12.8 17.7 26.0 38.7 101.4 92.2 316.0
08/05 01:00 7.6 94 7.58 6.7 39 61 1013.1 12.4 17.7 26.0 38.7 101.4 92.3 316.1
08/05 00:50 7.6 93 7.5 6.5 37 43 1013.1 12.2 17.5 25.9 38.3 100.5 91.2 312.3
08/05 00:40 7.5 92 7.37 6.3 46 57 1013.1 12.2 17.2 25.7 37.8 99.2 89.5 306.4
08/05 00:30 7.4 93 7.4 6.3 44 69 1013.1 12.2 17.3 25.8 38.0 99.6 90.0 308.2
08/05 00:20 7.8 96 7.84 7.2 44 52 1013.1 11.8 18.2 26.4 39.7 104.1 95.6 328.0
08/05 00:10 7.8 95 7.76 7.1 33 50 1013.1 11.6 18.1 26.3 39.3 103.2 94.5 324.1
08/05 00:00 8 92 7.61 6.8 41 59 1013.1 11.2 17.7 25.9 38.6 101.2 92.2 316.0
07/05 23:50 8.1 88 7.33 6.2 46 54 1013.1 10.8 17.1 25.5 37.4 98.0 88.2 302.1
07/05 23:40 7.9 89 7.31 6.2 48 59 1013.1 10.8 17.1 25.5 37.4 98.0 88.2 302.0
07/05 23:30 7.9 91 7.48 6.5 41 56 1013.1 10.8 17.5 25.8 38.1 99.9 90.5 310.1
07/05 23:20 8.1 94 7.82 7.2 37 52 1013.1 10.8 18.2 26.3 39.4 103.4 95.0 325.7
07/05 23:10 8.1 94 7.82 7.2 39 50 1013.1 10.8 18.2 26.3 39.4 103.4 95.0 325.7
07/05 23:00 8.2 94 7.88 7.3 39 65 1013.1 10.8 18.3 26.3 39.6 104.0 95.7 328.2
07/05 22:50 8.4 95 8.06 7.6 33 43 1013.1 10.6 18.7 26.6 40.3 105.7 97.9 336.1
07/05 22:40 8.5 96 8.2 7.9 32 39 1013.1 10.2 19.0 26.8 40.8 107.2 99.8 342.5
07/05 22:30 8.5 96 8.2 7.9 35 65 1013.1 9.8 19.0 26.8 40.8 107.2 99.8 342.5
07/05 22:20 8.6 95 8.17 7.8 44 63 1013.1 9.6 18.9 26.7 40.7 106.7 99.2 340.6
07/05 22:10 8.8 94 8.18 7.9 32 54 1013.1 9 18.9 26.7 40.6 106.6 99.1 340.2
07/05 22:00 8.9 94 8.24 8 35 61 1013.1 8.6 19.1 26.7 40.8 107.1 99.8 342.7
07/05 21:50 9 93 8.2 7.9 41 48 1013.1 8.2 19.0 26.6 40.6 106.5 99.1 340.3
07/05 21:40 8.9 95 8.32 8.1 41 54 1013.1 8 19.2 26.9 41.1 108.0 100.9 346.6
07/05 21:30 9.1 93 8.25 8 46 69 1013.1 7.8 19.1 26.7 40.7 106.9 99.7 342.3
07/05 21:20 9 93 8.2 7.9 46 52 1013.1 7.4 19.0 26.6 40.6 106.5 99.1 340.3
07/05 21:10 9 94 8.29 8.1 33 37 1013.1 7 19.2 26.8 41.0 107.5 100.4 344.7
07/05 21:00 8.8 96 8.36 8.2 43 61 1013.1 7 19.3 27.0 41.4 108.6 101.6 349.1
07/05 20:50 8.8 95 8.27 8 37 48 1013.1 6.8 19.1 26.8 41.0 107.6 100.4 344.6
07/05 20:40 8.8 95 8.27 8 37 57 1013.1 6.4 19.1 26.8 41.0 107.6 100.4 344.6
07/05 20:30 8.8 95 8.27 8 43 61 1013.1 6.2 19.1 26.8 41.0 107.6 100.4 344.6
07/05 20:20 8.8 95 8.27 8 43 50 1013.1 6 19.1 26.8 41.0 107.6 100.4 344.6
07/05 20:10 8.8 95 8.27 8 39 43 1013.1 5.8 19.1 26.8 41.0 107.6 100.4 344.6
07/05 20:00 8.8 96 8.36 8.2 48 67 1013.1 5 19.3 27.0 41.4 108.6 101.6 349.1

Last Refresh: 08-May-2026 12:09:37

Bureau of Meteorology